Time;durP1;ratioP1;P1;durP2;ratioP2;P2;SDS_P1;SDS_P2;PMS_P1;PMS_P2;Temp;Humidity;BMP_temperature;BMP_pressure;BME280_temperature;BME280_humidity;BME280_pressure;Samples;Min_cycle;Max_cycle;Signal;HPM_P1;HPM_P2
2024/03/25 00:01:27;;;;;;;0.50;0.50;;;7.80;98.80;;;;;;10492055;28;20200;-76
2024/03/25 00:06:33;;;;;;;0.60;0.60;;;7.90;98.30;;;;;;10493000;28;20224;-76
2024/03/25 00:11:36;;;;;;;0.60;0.60;;;7.90;98.30;;;;;;10477604;28;20188;-76
2024/03/25 00:16:39;;;;;;;0.50;0.50;;;7.80;98.20;;;;;;10469915;28;20281;-76
2024/03/25 00:21:42;;;;;;;0.57;0.57;;;7.80;97.90;;;;;;10483960;28;20215;-76
2024/03/25 00:26:45;;;;;;;0.50;0.50;;;7.80;97.80;;;;;;10493022;28;20224;-76
2024/03/25 00:31:47;;;;;;;0.60;0.60;;;7.80;97.50;;;;;;10494345;28;20196;-76
2024/03/25 00:36:50;;;;;;;0.50;0.50;;;7.80;98.00;;;;;;10491029;28;20590;-76
2024/03/25 00:41:54;;;;;;;0.50;0.50;;;7.80;97.60;;;;;;10492761;28;20616;-76
2024/03/25 00:46:57;;;;;;;0.50;0.50;;;7.80;97.60;;;;;;10493168;28;20228;-77
2024/03/25 00:51:59;;;;;;;0.50;0.50;;;7.80;98.00;;;;;;10493316;28;20246;-76
2024/03/25 00:57:03;;;;;;;0.50;0.50;;;7.70;98.10;;;;;;10451454;28;20217;-76
2024/03/25 01:02:06;;;;;;;0.43;0.43;;;7.80;97.80;;;;;;10468353;28;20200;-76
2024/03/25 01:07:08;;;;;;;0.50;0.50;;;7.80;97.80;;;;;;10492269;28;20289;-76
2024/03/25 01:12:12;;;;;;;0.50;0.50;;;7.70;97.60;;;;;;10492282;28;20204;-74
2024/03/25 01:17:14;;;;;;;0.50;0.50;;;7.70;97.70;;;;;;10491606;28;20218;-76
2024/03/25 01:22:16;;;;;;;0.50;0.50;;;7.80;97.70;;;;;;10492448;28;20204;-76
2024/03/25 01:27:20;;;;;;;0.50;0.50;;;7.80;97.60;;;;;;10486547;28;20714;-76
2024/03/25 01:32:22;;;;;;;0.50;0.50;;;7.80;97.50;;;;;;10491424;28;20192;-76
2024/03/25 01:37:25;;;;;;;0.50;0.50;;;7.80;97.30;;;;;;10488896;28;20755;-77
2024/03/25 01:42:28;;;;;;;0.40;0.40;;;7.70;97.00;;;;;;10491493;28;20523;-77
2024/03/25 01:47:33;;;;;;;0.50;0.50;;;7.70;96.90;;;;;;10489595;28;20223;-76
2024/03/25 01:52:35;;;;;;;0.50;0.50;;;7.70;96.80;;;;;;10489879;28;20204;-74
2024/03/25 01:57:39;;;;;;;0.50;0.50;;;7.70;96.90;;;;;;10489494;28;20212;-74
2024/03/25 02:02:44;;;;;;;0.50;0.50;;;7.70;96.70;;;;;;10485284;28;20250;-74
2024/03/25 02:07:47;;;;;;;0.40;0.40;;;7.60;96.60;;;;;;10486257;28;20236;-77
2024/03/25 02:12:51;;;;;;;0.60;0.60;;;7.60;96.80;;;;;;10487484;28;20650;-74
2024/03/25 02:17:53;;;;;;;0.50;0.50;;;7.60;97.10;;;;;;10487277;28;20212;-74
2024/03/25 02:22:56;;;;;;;0.40;0.40;;;7.60;97.10;;;;;;10491026;28;20477;-73
2024/03/25 02:28:01;;;;;;;0.50;0.50;;;7.60;97.10;;;;;;10489518;28;20273;-75
2024/03/25 02:33:03;;;;;;;0.50;0.50;;;7.70;97.20;;;;;;10490538;28;20196;-75
2024/03/25 02:38:06;;;;;;;0.50;0.50;;;7.70;97.50;;;;;;10484106;28;20746;-75
2024/03/25 02:43:11;;;;;;;0.50;0.50;;;7.70;97.00;;;;;;10490337;28;20204;-75
2024/03/25 02:48:13;;;;;;;0.60;0.60;;;7.70;96.80;;;;;;10471499;28;20233;-75
2024/03/25 02:53:16;;;;;;;0.60;0.60;;;7.80;96.90;;;;;;10490850;28;20246;-75
2024/03/25 02:58:19;;;;;;;0.60;0.60;;;7.80;96.90;;;;;;10497490;28;20220;-75
2024/03/25 03:03:22;;;;;;;0.70;0.70;;;7.80;96.90;;;;;;10496624;28;20552;-75
2024/03/25 03:08:24;;;;;;;0.60;0.60;;;7.80;97.00;;;;;;10496894;28;20236;-75
2024/03/25 03:13:28;;;;;;;0.70;0.70;;;7.90;96.90;;;;;;10496812;28;20613;-75
2024/03/25 03:18:31;;;;;;;0.73;0.73;;;7.90;97.00;;;;;;10496662;28;20220;-75
2024/03/25 03:23:33;;;;;;;0.70;0.70;;;7.90;97.00;;;;;;10496712;28;20203;-75
2024/03/25 03:28:37;;;;;;;0.60;0.60;;;7.90;96.90;;;;;;10496037;28;20224;-77
2024/03/25 03:33:39;;;;;;;0.70;0.70;;;7.90;96.80;;;;;;10495784;28;20212;-76
2024/03/25 03:38:41;;;;;;;0.60;0.60;;;7.90;96.70;;;;;;10495966;28;20229;-76
2024/03/25 03:43:45;;;;;;;0.60;0.60;;;7.90;96.70;;;;;;10494415;28;20613;-76
2024/03/25 03:48:47;;;;;;;0.77;0.77;;;7.80;96.70;;;;;;10495469;28;20651;-76
2024/03/25 03:53:50;;;;;;;0.70;0.70;;;7.80;96.60;;;;;;10495681;28;20246;-76
2024/03/25 03:58:53;;;;;;;0.73;0.73;;;7.80;96.80;;;;;;10489816;28;20229;-76
2024/03/25 04:03:56;;;;;;;0.67;0.67;;;7.80;97.00;;;;;;10495224;28;20204;-75
2024/03/25 04:08:58;;;;;;;0.60;0.60;;;7.80;97.10;;;;;;10494577;28;20220;-76
2024/03/25 04:14:02;;;;;;;0.70;0.70;;;7.80;96.70;;;;;;10495122;28;20669;-76
2024/03/25 04:19:05;;;;;;;0.53;0.53;;;7.80;96.90;;;;;;10494773;28;20750;-75
2024/03/25 04:24:08;;;;;;;0.80;0.80;;;7.80;97.10;;;;;;10494716;28;20207;-75
2024/03/25 04:29:12;;;;;;;0.90;0.90;;;7.80;97.10;;;;;;10492852;28;20581;-75
2024/03/25 04:34:14;;;;;;;1.00;1.00;;;7.80;96.90;;;;;;10493312;28;20223;-75
